首页
METAR-TAF:

METAR-TAF

机场 :

雷克雅維克, 冰岛

纬度: 64-08N, 经度: 021-54W, 海拔: 54米

当前天气观测

该预报发布于46分钟前的08:00 UTC
风速12节,风向
温度 11°C
湿度 66%
气压 996 hPa
能见度10公里或以上
少量云层高于2500英尺
散云层高于3300英尺
阴天层高于5900英尺
小雨

METAR: BIRK 140800Z 08012KT 9999 -RA FEW025 SCT033 OVC059 11/05 Q0996

时间: 08:46 (08:46 UTC)

预报

该预报发布于44分钟前的08:02 UTC
预报有效从14日的 09点(UTC)到 15日的 09点(UTC)
风速15节,风向
能见度10公里或以上
多云层高于2500英尺
阴天层高于3500英尺
成为
从 14日的 12点(UTC)到 14日的 14点(UTC)
风速5节,风向南转南东
能見度: 8000
多云层高于1500英尺
阴天层高于2500英尺
小雨, 毛毛雨
几率 30% :
短暂存在
从 14日的 14点(UTC)到 15日的 03点(UTC)
能見度: 4000
多云层高于1000英尺
阴天层高于1500英尺
毛毛雨, 轻雾
成为
从 15日的 05点(UTC)到 15日的 08点(UTC)
风速10节,风向北转东北
能见度10公里或以上
少量云层高于1800英尺
散云层高于2500英尺
多云层高于3700英尺

TAF: BIRK 140802Z 1409/1509 09015KT 9999 RA BKN025 OVC035 TX13/1413Z TN09/1506Z BECMG 1412/1414 15005KT 8000 -RADZ BKN015 OVC025 PROB30 TEMPO 1414/1503 4000 DZ BR BKN010 OVC015 BECMG 1505/1508 02010KT 9999 NSW FEW018 SCT025 BKN037

超过4000个机场的气象观测和天气预报(METAR&TAF报告)。

可查询的气象台以黄色和红色小点在地图上表示。

将鼠标移到小点上方,可查看气象台名称。

然后点击查看天气观测和预报。

如需切换地图:点击带黑十字的绿色按钮放大地图;点击带横线的绿色按钮缩小地图;或者点击绿色箭头查看邻近地区的地图。


METAR-TAF: